sensor_id;sensor_type;location;lat;lon;timestamp;P1;durP1;ratioP1;P2;durP2;ratioP2
75914;SDS011;64593;51.050;13.780;2023-07-02T06:05:21;6.28;;;1.80;;
75914;SDS011;64593;51.050;13.780;2023-07-02T06:10:25;4.85;;;1.75;;
75914;SDS011;64593;51.050;13.780;2023-07-02T06:15:52;3.83;;;1.85;;
75914;SDS011;64593;51.050;13.780;2023-07-02T06:20:56;3.28;;;1.63;;
75914;SDS011;64593;51.050;13.780;2023-07-02T06:26:00;2.65;;;1.65;;
75914;SDS011;64593;51.050;13.780;2023-07-02T06:31:06;2.65;;;1.73;;
75914;SDS011;64593;51.050;13.780;2023-07-02T06:36:10;2.40;;;1.63;;
75914;SDS011;64593;51.050;13.780;2023-07-02T06:41:16;2.20;;;1.65;;
75914;SDS011;64593;51.050;13.780;2023-07-02T06:46:20;2.67;;;1.77;;
75914;SDS011;64593;51.050;13.780;2023-07-02T06:51:22;3.20;;;1.90;;
75914;SDS011;64593;51.050;13.780;2023-07-02T06:56:25;4.75;;;2.38;;
75914;SDS011;64593;51.050;13.780;2023-07-02T07:01:29;2.90;;;1.65;;
75914;SDS011;64593;51.050;13.780;2023-07-02T07:06:30;3.55;;;1.90;;
75914;SDS011;64593;51.050;13.780;2023-07-02T07:11:34;3.30;;;1.58;;
75914;SDS011;64593;51.050;13.780;2023-07-02T07:16:39;5.10;;;1.70;;
75914;SDS011;64593;51.050;13.780;2023-07-02T07:21:41;5.03;;;1.60;;
75914;SDS011;64593;51.050;13.780;2023-07-02T07:31:49;4.68;;;2.20;;
75914;SDS011;64593;51.050;13.780;2023-07-02T07:36:54;2.95;;;1.90;;
75914;SDS011;64593;51.050;13.780;2023-07-02T07:41:59;5.32;;;1.80;;
75914;SDS011;64593;51.050;13.780;2023-07-02T07:47:01;3.17;;;2.38;;
75914;SDS011;64593;51.050;13.780;2023-07-02T07:52:07;4.07;;;1.83;;
75914;SDS011;64593;51.050;13.780;2023-07-02T08:02:15;6.93;;;1.70;;
75914;SDS011;64593;51.050;13.780;2023-07-02T08:07:19;4.18;;;1.77;;
75914;SDS011;64593;51.050;13.780;2023-07-02T08:12:21;5.78;;;1.50;;
75914;SDS011;64593;51.050;13.780;2023-07-02T08:17:27;3.28;;;1.27;;
75914;SDS011;64593;51.050;13.780;2023-07-02T08:22:29;2.95;;;1.55;;
75914;SDS011;64593;51.050;13.780;2023-07-02T08:27:31;4.25;;;1.52;;
75914;SDS011;64593;51.050;13.780;2023-07-02T08:32:38;3.47;;;1.23;;
75914;SDS011;64593;51.050;13.780;2023-07-02T08:38:04;2.15;;;1.30;;
75914;SDS011;64593;51.050;13.780;2023-07-02T08:43:10;2.33;;;1.30;;
75914;SDS011;64593;51.050;13.780;2023-07-02T08:48:12;4.05;;;1.60;;
75914;SDS011;64593;51.050;13.780;2023-07-02T08:53:14;3.35;;;1.65;;
75914;SDS011;64593;51.050;13.780;2023-07-02T08:58:21;2.53;;;1.58;;
75914;SDS011;64593;51.050;13.780;2023-07-02T09:03:30;3.90;;;1.17;;
75914;SDS011;64593;51.050;13.780;2023-07-02T09:08:32;5.03;;;1.30;;
75914;SDS011;64593;51.050;13.780;2023-07-02T09:13:51;4.57;;;1.33;;
75914;SDS011;64593;51.050;13.780;2023-07-02T09:19:02;3.72;;;1.13;;
75914;SDS011;64593;51.050;13.780;2023-07-02T09:24:16;5.90;;;1.10;;
75914;SDS011;64593;51.050;13.780;2023-07-02T09:29:30;3.53;;;1.25;;
75914;SDS011;64593;51.050;13.780;2023-07-02T09:34:58;2.70;;;1.10;;
75914;SDS011;64593;51.050;13.780;2023-07-02T09:40:24;2.72;;;1.00;;
75914;SDS011;64593;51.050;13.780;2023-07-02T09:45:30;2.58;;;1.17;;
75914;SDS011;64593;51.050;13.780;2023-07-02T11:37:34;3.75;;;1.05;;
75914;SDS011;64593;51.050;13.780;2023-07-02T11:42:35;1.73;;;0.98;;
75914;SDS011;64593;51.050;13.780;2023-07-02T11:52:39;4.25;;;1.15;;
75914;SDS011;64593;51.050;13.780;2023-07-02T11:57:43;2.10;;;0.95;;
75914;SDS011;64593;51.050;13.780;2023-07-02T12:02:45;2.78;;;1.30;;
75914;SDS011;64593;51.050;13.780;2023-07-02T12:12:50;2.08;;;0.95;;
75914;SDS011;64593;51.050;13.780;2023-07-02T12:17:54;3.05;;;1.17;;
75914;SDS011;64593;51.050;13.780;2023-07-02T12:22:56;2.40;;;1.02;;
75914;SDS011;64593;51.050;13.780;2023-07-02T12:28:01;2.63;;;1.00;;
75914;SDS011;64593;51.050;13.780;2023-07-02T12:38:10;6.95;;;1.40;;
75914;SDS011;64593;51.050;13.780;2023-07-02T12:43:12;4.18;;;1.60;;
75914;SDS011;64593;51.050;13.780;2023-07-02T12:48:15;4.50;;;1.50;;
75914;SDS011;64593;51.050;13.780;2023-07-02T12:53:17;7.40;;;1.58;;
75914;SDS011;64593;51.050;13.780;2023-07-02T12:58:19;3.95;;;1.40;;
75914;SDS011;64593;51.050;13.780;2023-07-02T13:03:23;3.20;;;1.40;;
75914;SDS011;64593;51.050;13.780;2023-07-02T13:08:26;4.05;;;1.38;;
75914;SDS011;64593;51.050;13.780;2023-07-02T13:13:28;7.07;;;1.23;;
75914;SDS011;64593;51.050;13.780;2023-07-02T13:18:30;3.97;;;1.40;;
75914;SDS011;64593;51.050;13.780;2023-07-02T13:23:32;5.78;;;1.73;;
75914;SDS011;64593;51.050;13.780;2023-07-02T13:28:36;7.00;;;2.13;;
75914;SDS011;64593;51.050;13.780;2023-07-02T13:33:38;7.22;;;1.83;;
75914;SDS011;64593;51.050;13.780;2023-07-02T13:38:46;4.47;;;1.90;;
75914;SDS011;64593;51.050;13.780;2023-07-02T13:43:52;4.30;;;2.40;;
75914;SDS011;64593;51.050;13.780;2023-07-02T13:48:54;6.28;;;2.08;;
75914;SDS011;64593;51.050;13.780;2023-07-02T13:53:57;5.22;;;2.30;;
75914;SDS011;64593;51.050;13.780;2023-07-02T13:59:04;4.97;;;2.10;;
75914;SDS011;64593;51.050;13.780;2023-07-02T14:04:07;5.63;;;1.70;;
75914;SDS011;64593;51.050;13.780;2023-07-02T14:09:11;6.10;;;1.52;;
75914;SDS011;64593;51.050;13.780;2023-07-02T14:14:15;5.65;;;2.00;;
75914;SDS011;64593;51.050;13.780;2023-07-02T14:19:17;5.28;;;2.15;;
75914;SDS011;64593;51.050;13.780;2023-07-02T14:24:44;6.03;;;1.92;;
75914;SDS011;64593;51.050;13.780;2023-07-02T14:29:46;4.15;;;1.88;;
75914;SDS011;64593;51.050;13.780;2023-07-02T14:39:55;3.95;;;1.63;;
75914;SDS011;64593;51.050;13.780;2023-07-02T14:45:06;7.90;;;2.13;;
75914;SDS011;64593;51.050;13.780;2023-07-02T14:50:09;8.43;;;2.60;;
75914;SDS011;64593;51.050;13.780;2023-07-02T14:55:11;4.35;;;2.58;;
75914;SDS011;64593;51.050;13.780;2023-07-02T15:00:18;9.18;;;2.45;;
75914;SDS011;64593;51.050;13.780;2023-07-02T15:05:20;6.18;;;2.97;;
75914;SDS011;64593;51.050;13.780;2023-07-02T15:10:22;6.38;;;2.63;;
75914;SDS011;64593;51.050;13.780;2023-07-02T15:15:32;12.63;;;3.30;;
75914;SDS011;64593;51.050;13.780;2023-07-02T15:20:58;10.18;;;3.25;;
75914;SDS011;64593;51.050;13.780;2023-07-02T15:26:06;5.95;;;3.05;;
75914;SDS011;64593;51.050;13.780;2023-07-02T15:31:33;7.68;;;3.58;;
75914;SDS011;64593;51.050;13.780;2023-07-02T15:41:43;13.02;;;4.28;;
75914;SDS011;64593;51.050;13.780;2023-07-02T15:46:45;7.00;;;3.17;;
75914;SDS011;64593;51.050;13.780;2023-07-02T15:56:49;10.07;;;3.80;;
75914;SDS011;64593;51.050;13.780;2023-07-02T16:01:57;7.10;;;3.88;;
75914;SDS011;64593;51.050;13.780;2023-07-02T16:06:58;10.88;;;3.75;;
75914;SDS011;64593;51.050;13.780;2023-07-02T16:12:00;8.02;;;4.07;;
75914;SDS011;64593;51.050;13.780;2023-07-02T16:17:02;9.07;;;4.15;;
75914;SDS011;64593;51.050;13.780;2023-07-02T16:22:29;9.77;;;4.20;;
75914;SDS011;64593;51.050;13.780;2023-07-02T16:27:33;14.55;;;5.35;;
75914;SDS011;64593;51.050;13.780;2023-07-02T16:32:43;9.18;;;4.70;;
75914;SDS011;64593;51.050;13.780;2023-07-02T16:37:47;11.18;;;4.95;;
75914;SDS011;64593;51.050;13.780;2023-07-02T16:43:13;9.65;;;4.80;;
75914;SDS011;64593;51.050;13.780;2023-07-02T16:48:16;15.77;;;5.00;;
75914;SDS011;64593;51.050;13.780;2023-07-02T16:53:17;10.68;;;4.88;;
75914;SDS011;64593;51.050;13.780;2023-07-02T16:58:44;13.70;;;5.20;;
75914;SDS011;64593;51.050;13.780;2023-07-02T17:03:46;13.88;;;5.05;;
75914;SDS011;64593;51.050;13.780;2023-07-02T17:09:19;8.55;;;5.38;;
75914;SDS011;64593;51.050;13.780;2023-07-02T17:14:22;10.73;;;5.35;;
75914;SDS011;64593;51.050;13.780;2023-07-02T17:19:26;10.02;;;5.45;;
75914;SDS011;64593;51.050;13.780;2023-07-02T17:24:57;12.93;;;5.03;;
75914;SDS011;64593;51.050;13.780;2023-07-02T17:30:03;13.38;;;6.40;;
75914;SDS011;64593;51.050;13.780;2023-07-02T17:35:07;14.15;;;6.43;;
75914;SDS011;64593;51.050;13.780;2023-07-02T17:40:14;12.35;;;5.53;;
75914;SDS011;64593;51.050;13.780;2023-07-02T17:45:16;10.45;;;5.25;;
75914;SDS011;64593;51.050;13.780;2023-07-02T17:50:52;12.07;;;5.55;;
75914;SDS011;64593;51.050;13.780;2023-07-02T17:55:55;14.90;;;5.75;;
75914;SDS011;64593;51.050;13.780;2023-07-02T18:01:22;13.18;;;5.68;;
75914;SDS011;64593;51.050;13.780;2023-07-02T18:06:26;13.15;;;5.63;;
75914;SDS011;64593;51.050;13.780;2023-07-02T18:11:52;12.98;;;5.78;;
75914;SDS011;64593;51.050;13.780;2023-07-02T18:17:19;11.43;;;5.70;;
75914;SDS011;64593;51.050;13.780;2023-07-02T18:22:23;17.38;;;6.00;;
75914;SDS011;64593;51.050;13.780;2023-07-02T18:28:00;11.30;;;5.47;;
75914;SDS011;64593;51.050;13.780;2023-07-02T18:33:39;16.08;;;6.18;;
75914;SDS011;64593;51.050;13.780;2023-07-02T18:38:43;14.50;;;6.55;;
75914;SDS011;64593;51.050;13.780;2023-07-02T18:44:10;14.63;;;6.05;;
75914;SDS011;64593;51.050;13.780;2023-07-02T18:49:37;11.98;;;5.80;;
75914;SDS011;64593;51.050;13.780;2023-07-02T18:54:40;12.55;;;5.93;;
75914;SDS011;64593;51.050;13.780;2023-07-02T19:00:10;12.65;;;6.03;;
75914;SDS011;64593;51.050;13.780;2023-07-02T19:05:39;14.05;;;5.90;;
75914;SDS011;64593;51.050;13.780;2023-07-02T19:11:07;14.77;;;6.18;;
75914;SDS011;64593;51.050;13.780;2023-07-02T19:16:10;13.05;;;6.72;;
75914;SDS011;64593;51.050;13.780;2023-07-02T19:21:38;11.90;;;6.03;;
75914;SDS011;64593;51.050;13.780;2023-07-02T19:26:39;14.75;;;6.20;;
75914;SDS011;64593;51.050;13.780;2023-07-02T19:32:08;16.40;;;6.68;;
75914;SDS011;64593;51.050;13.780;2023-07-02T19:37:28;16.80;;;6.75;;
75914;SDS011;64593;51.050;13.780;2023-07-02T19:42:38;12.43;;;6.30;;
75914;SDS011;64593;51.050;13.780;2023-07-02T19:53:25;16.35;;;6.32;;
75914;SDS011;64593;51.050;13.780;2023-07-02T19:58:53;18.55;;;6.78;;
75914;SDS011;64593;51.050;13.780;2023-07-02T20:03:56;13.73;;;6.55;;
75914;SDS011;64593;51.050;13.780;2023-07-02T20:16:57;16.33;;;7.50;;
75914;SDS011;64593;51.050;13.780;2023-07-02T20:22:19;12.90;;;6.28;;
